sensor_id;sensor_type;location;lat;lon;timestamp;temperature;humidity
53264;DHT22;39153;52.680;6.172;2023-03-01T00:01:05;0.70;99.90
53264;DHT22;39153;52.680;6.172;2023-03-01T00:03:32;-0.10;99.90
53264;DHT22;39153;52.680;6.172;2023-03-01T00:05:58;0.60;99.90
53264;DHT22;39153;52.680;6.172;2023-03-01T00:08:24;0.60;99.90
53264;DHT22;39153;52.680;6.172;2023-03-01T00:11:00;0.60;99.90
53264;DHT22;39153;52.680;6.172;2023-03-01T00:13:26;0.60;99.90
53264;DHT22;39153;52.680;6.172;2023-03-01T00:15:52;0.70;99.90
53264;DHT22;39153;52.680;6.172;2023-03-01T00:18:17;0.60;99.90
53264;DHT22;39153;52.680;6.172;2023-03-01T00:20:52;0.50;99.90
53264;DHT22;39153;52.680;6.172;2023-03-01T00:23:18;0.60;99.90
53264;DHT22;39153;52.680;6.172;2023-03-01T00:25:44;0.50;99.90
53264;DHT22;39153;52.680;6.172;2023-03-01T00:28:10;0.50;99.90
53264;DHT22;39153;52.680;6.172;2023-03-01T00:30:36;0.50;99.90
53264;DHT22;39153;52.680;6.172;2023-03-01T00:33:02;0.50;99.90
53264;DHT22;39153;52.680;6.172;2023-03-01T00:35:27;0.50;99.90
53264;DHT22;39153;52.680;6.172;2023-03-01T00:37:53;0.40;99.90
53264;DHT22;39153;52.680;6.172;2023-03-01T00:40:27;0.40;99.90
53264;DHT22;39153;52.680;6.172;2023-03-01T00:42:53;0.30;99.90
53264;DHT22;39153;52.680;6.172;2023-03-01T00:45:19;0.10;99.90
53264;DHT22;39153;52.680;6.172;2023-03-01T00:47:45;0.10;99.90
53264;DHT22;39153;52.680;6.172;2023-03-01T00:50:11;0.80;99.90
53264;DHT22;39153;52.680;6.172;2023-03-01T00:52:37;0.10;99.90
53264;DHT22;39153;52.680;6.172;2023-03-01T00:55:05;0.50;99.90
53264;DHT22;39153;52.680;6.172;2023-03-01T00:57:31;0.00;99.90
53264;DHT22;39153;52.680;6.172;2023-03-01T00:59:57;-0.10;99.90
53264;DHT22;39153;52.680;6.172;2023-03-01T01:02:23;-0.10;99.90
53264;DHT22;39153;52.680;6.172;2023-03-01T01:04:49;-0.10;99.90
53264;DHT22;39153;52.680;6.172;2023-03-01T01:07:15;-0.20;99.90
53264;DHT22;39153;52.680;6.172;2023-03-01T01:09:40;-0.30;99.90
53264;DHT22;39153;52.680;6.172;2023-03-01T01:12:06;-0.30;99.90
53264;DHT22;39153;52.680;6.172;2023-03-01T01:14:32;-0.30;99.90
53264;DHT22;39153;52.680;6.172;2023-03-01T01:16:58;-0.30;99.90
53264;DHT22;39153;52.680;6.172;2023-03-01T01:19:24;-0.30;99.90
53264;DHT22;39153;52.680;6.172;2023-03-01T01:21:50;-0.30;99.90
53264;DHT22;39153;52.680;6.172;2023-03-01T01:24:16;-0.40;99.90
53264;DHT22;39153;52.680;6.172;2023-03-01T01:26:43;-0.40;99.90
53264;DHT22;39153;52.680;6.172;2023-03-01T01:29:09;-0.40;99.90
53264;DHT22;39153;52.680;6.172;2023-03-01T01:31:36;-0.40;99.90
53264;DHT22;39153;52.680;6.172;2023-03-01T01:34:05;-0.40;99.90
53264;DHT22;39153;52.680;6.172;2023-03-01T01:36:31;0.00;99.90
53264;DHT22;39153;52.680;6.172;2023-03-01T01:38:57;-0.50;99.90
53264;DHT22;39153;52.680;6.172;2023-03-01T01:41:25;-0.40;99.90
53264;DHT22;39153;52.680;6.172;2023-03-01T01:44:29;-0.50;99.90
53264;DHT22;39153;52.680;6.172;2023-03-01T01:54:44;-0.60;99.90
53264;DHT22;39153;52.680;6.172;2023-03-01T01:57:18;-0.70;99.90
53264;DHT22;39153;52.680;6.172;2023-03-01T01:59:50;-0.70;99.90
53264;DHT22;39153;52.680;6.172;2023-03-01T02:02:17;-0.60;99.90
53264;DHT22;39153;52.680;6.172;2023-03-01T02:04:43;-0.60;99.90
53264;DHT22;39153;52.680;6.172;2023-03-01T02:07:18;-0.60;99.90
53264;DHT22;39153;52.680;6.172;2023-03-01T02:09:47;-0.60;99.90
53264;DHT22;39153;52.680;6.172;2023-03-01T02:12:14;-0.60;99.90
53264;DHT22;39153;52.680;6.172;2023-03-01T02:14:40;0.00;99.90
53264;DHT22;39153;52.680;6.172;2023-03-01T02:17:06;-0.50;99.90
53264;DHT22;39153;52.680;6.172;2023-03-01T02:22:25;-0.50;99.90
53264;DHT22;39153;52.680;6.172;2023-03-01T02:24:56;-0.50;99.90
53264;DHT22;39153;52.680;6.172;2023-03-01T02:27:28;-0.50;99.90
53264;DHT22;39153;52.680;6.172;2023-03-01T02:29:57;-0.50;99.90
53264;DHT22;39153;52.680;6.172;2023-03-01T02:32:23;-0.50;99.90
53264;DHT22;39153;52.680;6.172;2023-03-01T02:34:54;-0.50;99.90
53264;DHT22;39153;52.680;6.172;2023-03-01T02:37:21;-0.50;99.90
53264;DHT22;39153;52.680;6.172;2023-03-01T02:39:55;1.40;99.90
53264;DHT22;39153;52.680;6.172;2023-03-01T02:42:28;-0.50;99.90
53264;DHT22;39153;52.680;6.172;2023-03-01T02:44:55;-0.50;99.90
53264;DHT22;39153;52.680;6.172;2023-03-01T02:47:21;0.10;99.90
53264;DHT22;39153;52.680;6.172;2023-03-01T02:49:47;-0.50;99.90
53264;DHT22;39153;52.680;6.172;2023-03-01T02:52:43;-0.40;99.90
53264;DHT22;39153;52.680;6.172;2023-03-01T02:55:14;-0.40;99.90
53264;DHT22;39153;52.680;6.172;2023-03-01T02:57:43;-0.50;99.90
53264;DHT22;39153;52.680;6.172;2023-03-01T03:00:15;-0.40;99.90
53264;DHT22;39153;52.680;6.172;2023-03-01T03:02:51;-0.40;99.90
53264;DHT22;39153;52.680;6.172;2023-03-01T03:05:22;-0.50;99.90
53264;DHT22;39153;52.680;6.172;2023-03-01T03:07:49;-0.40;99.90
53264;DHT22;39153;52.680;6.172;2023-03-01T03:10:19;-0.50;99.90
53264;DHT22;39153;52.680;6.172;2023-03-01T03:12:49;-0.50;99.90
53264;DHT22;39153;52.680;6.172;2023-03-01T03:15:17;-0.50;99.90
53264;DHT22;39153;52.680;6.172;2023-03-01T03:17:43;-0.50;99.90
53264;DHT22;39153;52.680;6.172;2023-03-01T03:20:11;-0.60;99.90
53264;DHT22;39153;52.680;6.172;2023-03-01T03:22:39;-0.60;99.90
53264;DHT22;39153;52.680;6.172;2023-03-01T03:25:07;-0.70;99.90
53264;DHT22;39153;52.680;6.172;2023-03-01T03:27:36;-0.80;99.90
53264;DHT22;39153;52.680;6.172;2023-03-01T03:30:04;-0.80;99.90
53264;DHT22;39153;52.680;6.172;2023-03-01T03:32:35;-0.90;99.90
53264;DHT22;39153;52.680;6.172;2023-03-01T03:35:02;-1.00;99.90
53264;DHT22;39153;52.680;6.172;2023-03-01T03:37:43;-1.00;99.90
53264;DHT22;39153;52.680;6.172;2023-03-01T03:43:04;-1.00;99.90
53264;DHT22;39153;52.680;6.172;2023-03-01T03:45:30;-1.00;99.90
53264;DHT22;39153;52.680;6.172;2023-03-01T03:47:59;-1.00;99.90
53264;DHT22;39153;52.680;6.172;2023-03-01T03:50:25;-1.00;99.90
53264;DHT22;39153;52.680;6.172;2023-03-01T03:52:51;-1.00;99.90
53264;DHT22;39153;52.680;6.172;2023-03-01T03:55:17;-1.00;99.90
53264;DHT22;39153;52.680;6.172;2023-03-01T03:57:46;-1.00;99.90
53264;DHT22;39153;52.680;6.172;2023-03-01T04:00:21;-1.10;99.90
53264;DHT22;39153;52.680;6.172;2023-03-01T04:02:49;-1.10;99.90
53264;DHT22;39153;52.680;6.172;2023-03-01T04:05:17;-1.10;99.90
53264;DHT22;39153;52.680;6.172;2023-03-01T04:07:44;-1.10;99.90
53264;DHT22;39153;52.680;6.172;2023-03-01T04:10:16;-1.20;99.90
53264;DHT22;39153;52.680;6.172;2023-03-01T04:12:43;-1.20;99.90
53264;DHT22;39153;52.680;6.172;2023-03-01T04:15:09;-1.30;99.90
53264;DHT22;39153;52.680;6.172;2023-03-01T04:17:43;-1.30;99.90
53264;DHT22;39153;52.680;6.172;2023-03-01T04:20:14;-1.30;99.90
53264;DHT22;39153;52.680;6.172;2023-03-01T04:22:43;-1.40;99.90
53264;DHT22;39153;52.680;6.172;2023-03-01T04:25:12;-1.40;99.90
53264;DHT22;39153;52.680;6.172;2023-03-01T04:27:40;-1.50;99.90
53264;DHT22;39153;52.680;6.172;2023-03-01T04:30:07;-1.50;99.90
53264;DHT22;39153;52.680;6.172;2023-03-01T04:32:33;-1.50;99.90
53264;DHT22;39153;52.680;6.172;2023-03-01T04:35:00;-1.60;99.90
53264;DHT22;39153;52.680;6.172;2023-03-01T04:37:26;-1.60;99.90
53264;DHT22;39153;52.680;6.172;2023-03-01T04:39:52;-1.60;99.90
53264;DHT22;39153;52.680;6.172;2023-03-01T04:42:18;-1.60;99.90
53264;DHT22;39153;52.680;6.172;2023-03-01T04:44:45;-1.70;99.90
53264;DHT22;39153;52.680;6.172;2023-03-01T04:47:11;-1.70;99.90
53264;DHT22;39153;52.680;6.172;2023-03-01T04:49:37;-1.80;99.90
53264;DHT22;39153;52.680;6.172;2023-03-01T04:52:03;-1.80;99.90
53264;DHT22;39153;52.680;6.172;2023-03-01T04:54:33;-1.80;99.90
53264;DHT22;39153;52.680;6.172;2023-03-01T04:57:00;-1.80;99.90
53264;DHT22;39153;52.680;6.172;2023-03-01T04:59:26;-1.80;99.90
53264;DHT22;39153;52.680;6.172;2023-03-01T05:01:53;-1.90;99.90
53264;DHT22;39153;52.680;6.172;2023-03-01T05:04:21;-1.90;99.90
53264;DHT22;39153;52.680;6.172;2023-03-01T05:06:47;-1.50;99.90
53264;DHT22;39153;52.680;6.172;2023-03-01T05:09:13;-1.80;99.90
53264;DHT22;39153;52.680;6.172;2023-03-01T05:11:39;-1.80;99.90
53264;DHT22;39153;52.680;6.172;2023-03-01T05:14:06;-1.90;99.90
53264;DHT22;39153;52.680;6.172;2023-03-01T05:16:33;-1.90;99.90
53264;DHT22;39153;52.680;6.172;2023-03-01T05:18:59;-2.10;99.90
53264;DHT22;39153;52.680;6.172;2023-03-01T05:21:25;-2.10;99.90
53264;DHT22;39153;52.680;6.172;2023-03-01T05:23:52;-2.20;99.90
53264;DHT22;39153;52.680;6.172;2023-03-01T05:26:19;-2.20;99.90
53264;DHT22;39153;52.680;6.172;2023-03-01T05:28:47;-2.30;99.90
53264;DHT22;39153;52.680;6.172;2023-03-01T05:31:13;-2.30;99.90
53264;DHT22;39153;52.680;6.172;2023-03-01T05:33:40;-2.40;99.90
53264;DHT22;39153;52.680;6.172;2023-03-01T05:36:09;-2.30;99.90
53264;DHT22;39153;52.680;6.172;2023-03-01T05:38:35;-2.40;99.90
53264;DHT22;39153;52.680;6.172;2023-03-01T05:41:01;-2.50;99.90
53264;DHT22;39153;52.680;6.172;2023-03-01T05:43:30;-2.50;99.90
53264;DHT22;39153;52.680;6.172;2023-03-01T05:45:57;-2.50;99.90
53264;DHT22;39153;52.680;6.172;2023-03-01T05:48:23;-2.50;99.90
53264;DHT22;39153;52.680;6.172;2023-03-01T05:50:49;-2.50;99.90
53264;DHT22;39153;52.680;6.172;2023-03-01T05:53:17;-3.40;99.90
53264;DHT22;39153;52.680;6.172;2023-03-01T05:55:44;-2.50;99.90
53264;DHT22;39153;52.680;6.172;2023-03-01T05:58:14;-2.60;99.90
53264;DHT22;39153;52.680;6.172;2023-03-01T06:00:41;-2.60;99.90
53264;DHT22;39153;52.680;6.172;2023-03-01T06:03:10;-2.60;99.90
53264;DHT22;39153;52.680;6.172;2023-03-01T06:05:37;-2.60;99.90
53264;DHT22;39153;52.680;6.172;2023-03-01T06:08:03;-2.60;99.90
53264;DHT22;39153;52.680;6.172;2023-03-01T06:10:29;-2.60;99.90
53264;DHT22;39153;52.680;6.172;2023-03-01T06:12:55;-2.60;99.90
53264;DHT22;39153;52.680;6.172;2023-03-01T06:15:21;-2.60;99.90
53264;DHT22;39153;52.680;6.172;2023-03-01T06:17:47;-2.60;99.90
53264;DHT22;39153;52.680;6.172;2023-03-01T06:20:19;-2.60;99.90
53264;DHT22;39153;52.680;6.172;2023-03-01T06:22:45;-2.60;99.90
53264;DHT22;39153;52.680;6.172;2023-03-01T06:25:13;-2.60;99.90
53264;DHT22;39153;52.680;6.172;2023-03-01T06:27:39;-2.60;99.90
53264;DHT22;39153;52.680;6.172;2023-03-01T06:30:05;-2.60;99.90
53264;DHT22;39153;52.680;6.172;2023-03-01T06:32:32;-2.60;99.90
53264;DHT22;39153;52.680;6.172;2023-03-01T06:34:58;-2.60;99.90
53264;DHT22;39153;52.680;6.172;2023-03-01T06:37:27;-2.60;99.90
53264;DHT22;39153;52.680;6.172;2023-03-01T06:39:53;-2.50;99.90
53264;DHT22;39153;52.680;6.172;2023-03-01T06:42:18;-2.60;99.90
53264;DHT22;39153;52.680;6.172;2023-03-01T06:44:44;-2.50;99.90
53264;DHT22;39153;52.680;6.172;2023-03-01T06:47:11;-2.50;99.90
53264;DHT22;39153;52.680;6.172;2023-03-01T06:49:37;-2.50;99.90
53264;DHT22;39153;52.680;6.172;2023-03-01T06:52:02;-2.50;99.90
53264;DHT22;39153;52.680;6.172;2023-03-01T06:54:28;-2.50;99.90
53264;DHT22;39153;52.680;6.172;2023-03-01T06:56:54;-2.50;99.90
53264;DHT22;39153;52.680;6.172;2023-03-01T06:59:20;-2.50;99.90
53264;DHT22;39153;52.680;6.172;2023-03-01T07:01:46;-2.50;99.90
53264;DHT22;39153;52.680;6.172;2023-03-01T07:04:13;-2.50;99.90
53264;DHT22;39153;52.680;6.172;2023-03-01T07:06:39;-2.40;99.90
53264;DHT22;39153;52.680;6.172;2023-03-01T07:09:04;-2.40;99.90
53264;DHT22;39153;52.680;6.172;2023-03-01T07:11:30;-2.40;99.90
53264;DHT22;39153;52.680;6.172;2023-03-01T07:13:56;-2.30;99.90
53264;DHT22;39153;52.680;6.172;2023-03-01T07:16:21;-2.30;99.90
53264;DHT22;39153;52.680;6.172;2023-03-01T07:18:47;-2.30;99.90
53264;DHT22;39153;52.680;6.172;2023-03-01T07:21:14;-2.20;99.90
53264;DHT22;39153;52.680;6.172;2023-03-01T07:23:40;-2.20;99.90
53264;DHT22;39153;52.680;6.172;2023-03-01T07:26:06;-2.20;99.90
53264;DHT22;39153;52.680;6.172;2023-03-01T07:28:32;-2.20;99.90
53264;DHT22;39153;52.680;6.172;2023-03-01T07:31:05;-2.20;99.90
53264;DHT22;39153;52.680;6.172;2023-03-01T07:33:31;-2.10;99.90
53264;DHT22;39153;52.680;6.172;2023-03-01T07:36:01;-2.00;99.90
53264;DHT22;39153;52.680;6.172;2023-03-01T07:38:28;-2.00;99.90
53264;DHT22;39153;52.680;6.172;2023-03-01T07:41:00;-2.00;99.90
53264;DHT22;39153;52.680;6.172;2023-03-01T07:43:27;-2.00;99.90
53264;DHT22;39153;52.680;6.172;2023-03-01T07:45:53;-1.80;99.90
53264;DHT22;39153;52.680;6.172;2023-03-01T07:48:19;-1.80;99.90
53264;DHT22;39153;52.680;6.172;2023-03-01T07:50:44;-1.80;99.90
53264;DHT22;39153;52.680;6.172;2023-03-01T07:53:10;-1.00;99.90
53264;DHT22;39153;52.680;6.172;2023-03-01T07:55:36;-1.60;99.90
53264;DHT22;39153;52.680;6.172;2023-03-01T07:58:02;-1.60;99.90
53264;DHT22;39153;52.680;6.172;2023-03-01T08:00:28;-1.60;99.90
53264;DHT22;39153;52.680;6.172;2023-03-01T08:02:53;-1.50;99.90
53264;DHT22;39153;52.680;6.172;2023-03-01T08:05:19;-1.40;99.90
53264;DHT22;39153;52.680;6.172;2023-03-01T08:07:47;-1.40;99.90
53264;DHT22;39153;52.680;6.172;2023-03-01T08:10:13;-1.30;99.90
53264;DHT22;39153;52.680;6.172;2023-03-01T08:12:38;-1.20;99.90
53264;DHT22;39153;52.680;6.172;2023-03-01T08:15:04;-1.20;99.90
53264;DHT22;39153;52.680;6.172;2023-03-01T08:17:30;-1.10;99.90
53264;DHT22;39153;52.680;6.172;2023-03-01T08:19:56;-1.00;99.90
53264;DHT22;39153;52.680;6.172;2023-03-01T08:22:22;-1.00;99.90
53264;DHT22;39153;52.680;6.172;2023-03-01T08:24:47;-0.90;99.90
53264;DHT22;39153;52.680;6.172;2023-03-01T08:27:15;-0.80;99.90
53264;DHT22;39153;52.680;6.172;2023-03-01T08:29:41;-0.70;99.90
53264;DHT22;39153;52.680;6.172;2023-03-01T08:32:06;-0.70;99.90
53264;DHT22;39153;52.680;6.172;2023-03-01T08:34:32;-0.60;99.90
53264;DHT22;39153;52.680;6.172;2023-03-01T08:37:01;-0.50;99.90
53264;DHT22;39153;52.680;6.172;2023-03-01T08:39:27;-0.50;99.90
53264;DHT22;39153;52.680;6.172;2023-03-01T08:41:53;-0.40;99.90
53264;DHT22;39153;52.680;6.172;2023-03-01T08:44:19;-0.30;99.90
53264;DHT22;39153;52.680;6.172;2023-03-01T08:46:47;-0.40;99.90
53264;DHT22;39153;52.680;6.172;2023-03-01T08:49:17;-0.20;99.90
53264;DHT22;39153;52.680;6.172;2023-03-01T08:51:44;-0.10;99.90
53264;DHT22;39153;52.680;6.172;2023-03-01T08:54:13;0.10;99.90
53264;DHT22;39153;52.680;6.172;2023-03-01T08:56:40;0.20;99.90
53264;DHT22;39153;52.680;6.172;2023-03-01T08:59:06;0.30;99.90
53264;DHT22;39153;52.680;6.172;2023-03-01T09:01:32;0.40;99.90
53264;DHT22;39153;52.680;6.172;2023-03-01T09:03:58;0.50;99.90
53264;DHT22;39153;52.680;6.172;2023-03-01T09:06:24;0.60;99.90
53264;DHT22;39153;52.680;6.172;2023-03-01T09:08:50;0.80;99.90
53264;DHT22;39153;52.680;6.172;2023-03-01T09:11:21;1.00;99.90
53264;DHT22;39153;52.680;6.172;2023-03-01T09:13:47;1.10;99.90
53264;DHT22;39153;52.680;6.172;2023-03-01T09:16:16;1.20;99.90
53264;DHT22;39153;52.680;6.172;2023-03-01T09:18:43;1.30;99.90
53264;DHT22;39153;52.680;6.172;2023-03-01T09:21:14;1.50;99.90
53264;DHT22;39153;52.680;6.172;2023-03-01T09:23:45;1.70;99.90
53264;DHT22;39153;52.680;6.172;2023-03-01T09:26:16;1.90;99.90
53264;DHT22;39153;52.680;6.172;2023-03-01T09:28:45;2.20;99.90
53264;DHT22;39153;52.680;6.172;2023-03-01T09:31:11;2.40;99.90
53264;DHT22;39153;52.680;6.172;2023-03-01T09:33:41;2.40;99.90
53264;DHT22;39153;52.680;6.172;2023-03-01T09:36:14;2.60;99.90
53264;DHT22;39153;52.680;6.172;2023-03-01T09:38:39;2.80;99.90
53264;DHT22;39153;52.680;6.172;2023-03-01T09:41:17;3.40;99.90
53264;DHT22;39153;52.680;6.172;2023-03-01T09:43:52;3.00;99.90
53264;DHT22;39153;52.680;6.172;2023-03-01T09:46:21;3.00;99.90
53264;DHT22;39153;52.680;6.172;2023-03-01T09:49:03;3.40;99.90
53264;DHT22;39153;52.680;6.172;2023-03-01T09:51:35;3.30;99.90
53264;DHT22;39153;52.680;6.172;2023-03-01T09:54:02;4.70;99.90
53264;DHT22;39153;52.680;6.172;2023-03-01T10:01:46;3.90;99.90
53264;DHT22;39153;52.680;6.172;2023-03-01T10:09:32;4.20;99.90
53264;DHT22;39153;52.680;6.172;2023-03-01T10:12:01;4.30;99.90
53264;DHT22;39153;52.680;6.172;2023-03-01T10:17:12;4.40;99.90
53264;DHT22;39153;52.680;6.172;2023-03-01T10:19:46;4.50;99.90
53264;DHT22;39153;52.680;6.172;2023-03-01T10:22:20;4.50;99.90
53264;DHT22;39153;52.680;6.172;2023-03-01T10:24:50;4.80;99.90
53264;DHT22;39153;52.680;6.172;2023-03-01T10:32:42;4.70;99.90
53264;DHT22;39153;52.680;6.172;2023-03-01T10:35:26;4.90;99.90
53264;DHT22;39153;52.680;6.172;2023-03-01T10:40:31;4.90;99.90
53264;DHT22;39153;52.680;6.172;2023-03-01T10:42:59;5.00;99.90
53264;DHT22;39153;52.680;6.172;2023-03-01T10:45:39;5.30;99.90
53264;DHT22;39153;52.680;6.172;2023-03-01T10:48:24;5.50;99.90
53264;DHT22;39153;52.680;6.172;2023-03-01T10:53:29;5.90;99.90
53264;DHT22;39153;52.680;6.172;2023-03-01T10:58:33;6.20;99.90
53264;DHT22;39153;52.680;6.172;2023-03-01T11:03:37;6.40;99.90
53264;DHT22;39153;52.680;6.172;2023-03-01T11:08:52;6.70;99.90
53264;DHT22;39153;52.680;6.172;2023-03-01T11:11:35;6.70;99.90
53264;DHT22;39153;52.680;6.172;2023-03-01T11:14:22;6.70;99.90
53264;DHT22;39153;52.680;6.172;2023-03-01T11:17:10;6.90;99.90
53264;DHT22;39153;52.680;6.172;2023-03-01T11:19:37;6.90;99.90
53264;DHT22;39153;52.680;6.172;2023-03-01T11:22:07;6.90;99.90
53264;DHT22;39153;52.680;6.172;2023-03-01T11:24:46;6.90;99.90
53264;DHT22;39153;52.680;6.172;2023-03-01T11:30:02;7.20;99.90
53264;DHT22;39153;52.680;6.172;2023-03-01T11:32:43;7.10;99.90
53264;DHT22;39153;52.680;6.172;2023-03-01T11:35:27;7.10;99.90
53264;DHT22;39153;52.680;6.172;2023-03-01T11:40:52;7.40;99.90
53264;DHT22;39153;52.680;6.172;2023-03-01T11:43:37;7.70;99.90
53264;DHT22;39153;52.680;6.172;2023-03-01T11:48:57;8.20;99.90
53264;DHT22;39153;52.680;6.172;2023-03-01T11:54:23;8.60;99.90
53264;DHT22;39153;52.680;6.172;2023-03-01T12:05:32;9.10;99.90
53264;DHT22;39153;52.680;6.172;2023-03-01T12:16:52;9.50;99.90
53264;DHT22;39153;52.680;6.172;2023-03-01T12:22:17;9.70;99.90
53264;DHT22;39153;52.680;6.172;2023-03-01T12:25:14;9.70;99.90
53264;DHT22;39153;52.680;6.172;2023-03-01T12:31:05;9.90;99.90
53264;DHT22;39153;52.680;6.172;2023-03-01T12:33:45;10.10;99.90
53264;DHT22;39153;52.680;6.172;2023-03-01T12:36:39;10.20;99.90
53264;DHT22;39153;52.680;6.172;2023-03-01T12:39:22;11.30;99.90
53264;DHT22;39153;52.680;6.172;2023-03-01T12:41:59;10.00;99.90
53264;DHT22;39153;52.680;6.172;2023-03-01T12:50:57;10.80;99.90
53264;DHT22;39153;52.680;6.172;2023-03-01T12:53:32;10.90;99.90
53264;DHT22;39153;52.680;6.172;2023-03-01T12:56:05;11.00;99.90
53264;DHT22;39153;52.680;6.172;2023-03-01T12:58:42;11.00;99.90
53264;DHT22;39153;52.680;6.172;2023-03-01T13:11:44;11.30;99.90
53264;DHT22;39153;52.680;6.172;2023-03-01T13:16:52;11.50;99.90
53264;DHT22;39153;52.680;6.172;2023-03-01T13:19:23;11.70;99.90
53264;DHT22;39153;52.680;6.172;2023-03-01T13:21:52;11.90;99.90
53264;DHT22;39153;52.680;6.172;2023-03-01T13:24:38;12.00;99.90
53264;DHT22;39153;52.680;6.172;2023-03-01T13:27:10;12.20;99.90
53264;DHT22;39153;52.680;6.172;2023-03-01T13:29:53;12.40;99.90
53264;DHT22;39153;52.680;6.172;2023-03-01T13:32:27;12.40;98.80
53264;DHT22;39153;52.680;6.172;2023-03-01T13:37:45;12.40;98.40
53264;DHT22;39153;52.680;6.172;2023-03-01T13:42:55;12.60;98.70
53264;DHT22;39153;52.680;6.172;2023-03-01T13:45:34;12.40;98.50
53264;DHT22;39153;52.680;6.172;2023-03-01T13:48:22;12.40;98.40
53264;DHT22;39153;52.680;6.172;2023-03-01T13:51:01;12.40;98.20
53264;DHT22;39153;52.680;6.172;2023-03-01T13:53:30;12.40;98.00
53264;DHT22;39153;52.680;6.172;2023-03-01T13:56:18;12.50;98.30
53264;DHT22;39153;52.680;6.172;2023-03-01T13:59:06;12.70;97.50
53264;DHT22;39153;52.680;6.172;2023-03-01T14:01:38;12.90;97.70
53264;DHT22;39153;52.680;6.172;2023-03-01T14:04:21;12.90;98.10
53264;DHT22;39153;52.680;6.172;2023-03-01T14:06:47;13.00;97.70
53264;DHT22;39153;52.680;6.172;2023-03-01T14:09:20;13.10;97.90
53264;DHT22;39153;52.680;6.172;2023-03-01T14:20:23;13.00;97.30
53264;DHT22;39153;52.680;6.172;2023-03-01T14:22:52;13.10;97.00
53264;DHT22;39153;52.680;6.172;2023-03-01T14:25:23;13.00;96.90
53264;DHT22;39153;52.680;6.172;2023-03-01T14:30:37;12.60;96.60
53264;DHT22;39153;52.680;6.172;2023-03-01T14:33:16;12.30;96.60
53264;DHT22;39153;52.680;6.172;2023-03-01T14:35:42;11.90;97.00
53264;DHT22;39153;52.680;6.172;2023-03-01T14:38:34;11.50;97.10
53264;DHT22;39153;52.680;6.172;2023-03-01T14:41:10;11.30;97.40
53264;DHT22;39153;52.680;6.172;2023-03-01T14:43:38;11.00;98.00
53264;DHT22;39153;52.680;6.172;2023-03-01T14:46:06;10.80;98.50
53264;DHT22;39153;52.680;6.172;2023-03-01T14:48:37;10.70;98.10
53264;DHT22;39153;52.680;6.172;2023-03-01T14:51:05;10.70;97.90
53264;DHT22;39153;52.680;6.172;2023-03-01T14:53:31;10.60;98.20
53264;DHT22;39153;52.680;6.172;2023-03-01T14:56:01;10.40;98.70
53264;DHT22;39153;52.680;6.172;2023-03-01T14:58:32;10.30;99.00
53264;DHT22;39153;52.680;6.172;2023-03-01T15:01:01;10.10;98.80
53264;DHT22;39153;52.680;6.172;2023-03-01T15:03:45;9.80;99.20
53264;DHT22;39153;52.680;6.172;2023-03-01T15:06:15;9.80;99.80
53264;DHT22;39153;52.680;6.172;2023-03-01T15:08:46;9.70;99.70
53264;DHT22;39153;52.680;6.172;2023-03-01T15:11:27;9.60;99.60
53264;DHT22;39153;52.680;6.172;2023-03-01T15:13:53;9.50;99.80
53264;DHT22;39153;52.680;6.172;2023-03-01T15:16:33;9.40;99.80
53264;DHT22;39153;52.680;6.172;2023-03-01T15:19:03;9.40;99.80
53264;DHT22;39153;52.680;6.172;2023-03-01T15:21:38;9.40;99.90
53264;DHT22;39153;52.680;6.172;2023-03-01T15:24:20;9.40;99.90
53264;DHT22;39153;52.680;6.172;2023-03-01T15:26:56;9.40;99.80
53264;DHT22;39153;52.680;6.172;2023-03-01T15:29:28;9.50;99.90
53264;DHT22;39153;52.680;6.172;2023-03-01T15:32:20;9.50;99.90
53264;DHT22;39153;52.680;6.172;2023-03-01T15:34:48;9.50;99.90
53264;DHT22;39153;52.680;6.172;2023-03-01T15:42:45;9.40;99.90
53264;DHT22;39153;52.680;6.172;2023-03-01T15:45:22;9.30;99.90
53264;DHT22;39153;52.680;6.172;2023-03-01T15:50:32;9.30;99.90
53264;DHT22;39153;52.680;6.172;2023-03-01T15:53:01;9.20;99.90
53264;DHT22;39153;52.680;6.172;2023-03-01T15:55:31;9.10;99.90
53264;DHT22;39153;52.680;6.172;2023-03-01T16:00:29;9.00;99.90
53264;DHT22;39153;52.680;6.172;2023-03-01T16:02:55;8.90;99.90
53264;DHT22;39153;52.680;6.172;2023-03-01T16:05:29;8.90;99.90
53264;DHT22;39153;52.680;6.172;2023-03-01T16:07:58;8.90;99.90
53264;DHT22;39153;52.680;6.172;2023-03-01T16:10:24;8.80;99.90
53264;DHT22;39153;52.680;6.172;2023-03-01T16:12:51;8.80;99.90
53264;DHT22;39153;52.680;6.172;2023-03-01T16:15:26;8.80;99.90
53264;DHT22;39153;52.680;6.172;2023-03-01T16:17:53;8.70;99.90
53264;DHT22;39153;52.680;6.172;2023-03-01T16:20:18;8.70;99.90
53264;DHT22;39153;52.680;6.172;2023-03-01T16:22:45;8.70;99.90
53264;DHT22;39153;52.680;6.172;2023-03-01T16:25:13;8.70;99.90
53264;DHT22;39153;52.680;6.172;2023-03-01T16:27:42;8.60;99.90
53264;DHT22;39153;52.680;6.172;2023-03-01T16:30:08;8.60;99.90
53264;DHT22;39153;52.680;6.172;2023-03-01T16:32:42;8.60;99.90
53264;DHT22;39153;52.680;6.172;2023-03-01T16:35:10;8.50;99.90
53264;DHT22;39153;52.680;6.172;2023-03-01T16:37:36;8.50;99.90
53264;DHT22;39153;52.680;6.172;2023-03-01T16:40:03;8.40;99.90
53264;DHT22;39153;52.680;6.172;2023-03-01T16:42:34;8.40;99.90
53264;DHT22;39153;52.680;6.172;2023-03-01T16:44:59;8.40;99.90
53264;DHT22;39153;52.680;6.172;2023-03-01T16:47:27;8.30;99.90
53264;DHT22;39153;52.680;6.172;2023-03-01T16:49:53;8.20;99.90
53264;DHT22;39153;52.680;6.172;2023-03-01T16:52:19;8.20;99.90
53264;DHT22;39153;52.680;6.172;2023-03-01T16:54:45;8.00;99.90
53264;DHT22;39153;52.680;6.172;2023-03-01T16:57:11;8.00;99.90
53264;DHT22;39153;52.680;6.172;2023-03-01T16:59:37;7.90;99.90
53264;DHT22;39153;52.680;6.172;2023-03-01T17:02:04;7.90;99.90
53264;DHT22;39153;52.680;6.172;2023-03-01T17:04:31;7.80;99.90
53264;DHT22;39153;52.680;6.172;2023-03-01T17:06:57;7.90;99.90
53264;DHT22;39153;52.680;6.172;2023-03-01T17:09:22;7.60;99.90
53264;DHT22;39153;52.680;6.172;2023-03-01T17:11:49;7.60;99.90
53264;DHT22;39153;52.680;6.172;2023-03-01T17:14:15;7.50;99.90
53264;DHT22;39153;52.680;6.172;2023-03-01T17:16:42;7.40;99.90
53264;DHT22;39153;52.680;6.172;2023-03-01T17:19:08;7.30;99.90
53264;DHT22;39153;52.680;6.172;2023-03-01T17:21:34;7.20;99.90
53264;DHT22;39153;52.680;6.172;2023-03-01T17:24:00;7.20;99.90
53264;DHT22;39153;52.680;6.172;2023-03-01T17:26:26;7.10;99.90
53264;DHT22;39153;52.680;6.172;2023-03-01T17:28:54;7.10;99.90
53264;DHT22;39153;52.680;6.172;2023-03-01T17:31:21;7.10;99.90
53264;DHT22;39153;52.680;6.172;2023-03-01T17:33:46;6.90;99.90
53264;DHT22;39153;52.680;6.172;2023-03-01T17:36:12;7.00;99.90
53264;DHT22;39153;52.680;6.172;2023-03-01T17:38:38;6.90;99.90
53264;DHT22;39153;52.680;6.172;2023-03-01T17:41:04;6.90;99.90
53264;DHT22;39153;52.680;6.172;2023-03-01T17:43:29;6.90;99.90
53264;DHT22;39153;52.680;6.172;2023-03-01T17:45:56;6.80;99.90
53264;DHT22;39153;52.680;6.172;2023-03-01T17:48:22;6.80;99.90
53264;DHT22;39153;52.680;6.172;2023-03-01T17:50:48;6.80;99.90
53264;DHT22;39153;52.680;6.172;2023-03-01T17:53:14;6.70;99.90
53264;DHT22;39153;52.680;6.172;2023-03-01T17:55:41;6.70;99.90
53264;DHT22;39153;52.680;6.172;2023-03-01T17:58:09;6.60;99.90